Time;durP1;ratioP1;P1;durP2;ratioP2;P2;SDS_P1;SDS_P2;PMS_P1;PMS_P2;Temp;Humidity;BMP_temperature;BMP_pressure;BME280_temperature;BME280_humidity;BME280_pressure;Samples;Min_cycle;Max_cycle;Signal;HPM_P1;HPM_P2
2022/08/09 00:01:47;358491.00;1.19;618.46;72775.00;0.24;126.56;;;;;23.80;1.00;;;;;;2272315;61;1093;-83
2022/08/09 00:04:14;185308.00;0.62;320.63;0.00;0.00;0.62;;;;;23.90;1.00;;;;;;2272269;61;1346;-84
2022/08/09 00:06:40;188640.00;0.63;326.37;0.00;0.00;0.62;;;;;24.10;1.00;;;;;;2272260;61;1086;-83
2022/08/09 00:09:08;142000.00;0.47;246.02;17443.00;0.06;30.84;;;;;24.10;1.00;;;;;;2272261;61;1076;-84
2022/08/09 00:11:35;92306.00;0.31;160.29;0.00;0.00;0.62;;;;;24.30;1.00;;;;;;2272214;61;1992;-84
2022/08/09 00:14:02;110018.00;0.37;190.86;0.00;0.00;0.62;;;;;24.10;1.00;;;;;;2272271;61;1384;-83
2022/08/09 00:16:30;50614.00;0.17;88.25;0.00;0.00;0.62;;;;;24.10;1.00;;;;;;2272240;61;1029;-83
2022/08/09 00:18:57;98985.00;0.33;171.82;0.00;0.00;0.62;;;;;24.10;1.00;;;;;;2272254;61;1012;-81
2022/08/09 00:21:25;150137.00;0.50;260.04;0.00;0.00;0.62;;;;;24.20;1.00;;;;;;2272135;61;964;-82
2022/08/09 00:23:52;123241.00;0.41;213.67;0.00;0.00;0.62;;;;;23.90;1.00;;;;;;2272208;61;1276;-82
2022/08/09 00:26:19;323515.00;1.08;558.34;39981.00;0.13;69.86;;;;;23.70;1.00;;;;;;2272196;61;1067;-83
2022/08/09 00:28:46;125181.00;0.42;217.02;0.00;0.00;0.62;;;;;23.70;1.00;;;;;;2272101;61;1028;-84
2022/08/09 00:31:13;352604.00;1.18;608.34;69538.00;0.23;120.96;;;;;23.80;1.00;;;;;;2272082;61;1905;-84
2022/08/09 00:33:42;417023.00;1.39;719.07;65335.00;0.22;113.70;;;;;23.70;1.00;;;;;;2272330;61;1742;-84
2022/08/09 00:36:10;122806.00;0.41;212.92;0.00;0.00;0.62;;;;;23.70;1.00;;;;;;2272844;61;1647;-83
2022/08/09 00:38:38;93562.00;0.31;162.46;0.00;0.00;0.62;;;;;23.70;1.00;;;;;;2272819;61;1769;-84
2022/08/09 00:41:05;91199.00;0.30;158.38;0.00;0.00;0.62;;;;;23.60;1.00;;;;;;2272889;61;1095;-83
2022/08/09 00:43:33;131981.00;0.44;228.75;0.00;0.00;0.62;;;;;23.30;1.00;;;;;;2272936;61;1127;-84
2022/08/09 00:46:00;119793.00;0.40;207.73;0.00;0.00;0.62;;;;;23.40;1.00;;;;;;2272856;61;1419;-84
2022/08/09 00:48:27;147314.00;0.49;255.18;0.00;0.00;0.62;;;;;23.30;1.00;;;;;;2272920;61;1026;-83
2022/08/09 00:50:56;80468.00;0.27;139.85;0.00;0.00;0.62;;;;;23.30;1.00;;;;;;2272872;61;1996;-83
2022/08/09 00:53:23;162530.00;0.54;281.40;0.00;0.00;0.62;;;;;23.10;1.00;;;;;;2272856;61;1103;-84
2022/08/09 00:55:50;227366.00;0.76;393.02;26231.00;0.09;46.06;;;;;23.00;1.00;;;;;;2272808;61;1383;-84
2022/08/09 00:58:17;123634.00;0.41;214.35;0.00;0.00;0.62;;;;;23.10;1.00;;;;;;2272891;61;1096;-83
2022/08/09 01:00:44;326919.00;1.09;564.19;68575.00;0.23;119.30;;;;;23.00;1.00;;;;;;2272819;61;1082;-83
2022/08/09 01:03:20;275446.00;0.92;475.71;74098.00;0.25;128.84;;;;;23.00;1.00;;;;;;2272798;61;2207;-81
2022/08/09 01:05:55;275628.00;0.92;476.02;74591.00;0.25;129.69;;;;;23.10;1.00;;;;;;2272826;61;1486;-83
2022/08/09 01:08:33;80743.00;0.27;140.32;0.00;0.00;0.62;;;;;22.90;1.00;;;;;;2272823;61;964;-82
2022/08/09 01:11:11;87229.00;0.29;151.52;0.00;0.00;0.62;;;;;22.90;1.00;;;;;;2272792;61;1988;-83
2022/08/09 01:13:47;38204.00;0.13;66.78;0.00;0.00;0.62;;;;;22.90;1.00;;;;;;2272804;61;1167;-84
2022/08/09 01:16:17;200640.00;0.67;347.03;0.00;0.00;0.62;;;;;22.70;1.00;;;;;;2272799;61;1347;-83
2022/08/09 01:18:46;430461.00;1.43;742.18;68454.00;0.23;119.09;;;;;22.80;1.00;;;;;;2272769;61;1693;-84
2022/08/09 01:21:27;203513.00;0.68;351.97;65118.00;0.22;113.32;;;;;22.70;1.00;;;;;;2272784;61;1145;-82
2022/08/09 01:24:00;285242.00;0.95;492.55;109447.00;0.36;189.88;;;;;22.80;1.00;;;;;;2272699;61;1376;-83
2022/08/09 01:26:52;178287.00;0.59;308.54;75349.00;0.25;131.00;;;;;22.90;1.00;;;;;;2272815;61;1092;-84
2022/08/09 01:29:27;128851.00;0.43;223.35;0.00;0.00;0.62;;;;;22.80;1.00;;;;;;2272750;61;1188;-83
2022/08/09 01:32:01;141762.00;0.47;245.61;0.00;0.00;0.62;;;;;23.00;1.00;;;;;;2272738;61;1976;-83
2022/08/09 01:34:30;127086.00;0.42;220.30;0.00;0.00;0.62;;;;;23.20;1.00;;;;;;2272651;61;1468;-83
2022/08/09 01:37:00;27868.00;0.09;48.89;0.00;0.00;0.62;;;;;23.20;1.00;;;;;;2272643;61;1053;-83
2022/08/09 01:39:33;71621.00;0.24;124.56;0.00;0.00;0.62;;;;;23.20;1.00;;;;;;2272683;61;1072;-84
2022/08/09 01:42:04;164841.00;0.55;285.38;0.00;0.00;0.62;;;;;23.10;1.00;;;;;;2272709;61;1043;-84
2022/08/09 01:44:33;100253.00;0.33;174.01;0.00;0.00;0.62;;;;;22.90;1.00;;;;;;2272618;61;1452;-83
2022/08/09 01:47:02;230377.00;0.77;398.20;32638.00;0.11;57.15;;;;;22.70;1.00;;;;;;2272647;61;1095;-84
2022/08/09 01:49:31;40643.00;0.14;71.00;0.00;0.00;0.62;;;;;22.40;1.00;;;;;;2272682;61;1060;-83
2022/08/09 01:52:02;76713.00;0.26;133.36;0.00;0.00;0.62;;;;;22.70;1.00;;;;;;2272640;61;2002;-83
2022/08/09 01:54:35;72313.00;0.24;125.76;0.00;0.00;0.62;;;;;22.50;1.00;;;;;;2272636;61;1292;-84
2022/08/09 01:57:08;162132.00;0.54;280.71;0.00;0.00;0.62;;;;;22.20;1.00;;;;;;2272673;61;1845;-83
2022/08/09 01:59:40;20175.00;0.07;35.57;0.00;0.00;0.62;;;;;21.90;1.00;;;;;;2272655;61;2205;-83
2022/08/09 02:02:09;0.00;0.00;0.62;0.00;0.00;0.62;;;;;21.80;1.00;;;;;;2272664;61;1104;-83
2022/08/09 02:04:39;19033.00;0.06;33.60;0.00;0.00;0.62;;;;;22.00;1.00;;;;;;2272469;61;1384;-83
2022/08/09 02:07:14;26162.00;0.09;45.94;0.00;0.00;0.62;;;;;22.00;1.00;;;;;;2272613;61;1062;-84
2022/08/09 02:09:46;42424.00;0.14;74.08;0.00;0.00;0.62;;;;;22.00;1.00;;;;;;2272658;61;1072;-83
2022/08/09 02:12:17;10567.00;0.04;18.93;0.00;0.00;0.62;;;;;22.10;1.00;;;;;;2272589;61;1983;-84
2022/08/09 02:14:47;0.00;0.00;0.62;0.00;0.00;0.62;;;;;22.00;1.00;;;;;;2272596;61;1355;-83
2022/08/09 02:17:16;0.00;0.00;0.62;0.00;0.00;0.62;;;;;22.10;1.00;;;;;;2272554;61;1095;-83
2022/08/09 02:19:44;0.00;0.00;0.62;0.00;0.00;0.62;;;;;22.00;1.00;;;;;;2272561;61;1079;-83
2022/08/09 02:22:20;0.00;0.00;0.62;0.00;0.00;0.62;;;;;21.90;1.00;;;;;;2272576;61;1099;-84
2022/08/09 02:24:50;21440.00;0.07;37.76;0.00;0.00;0.62;;;;;22.20;1.00;;;;;;2272579;61;1296;-84
2022/08/09 02:27:24;0.00;0.00;0.62;0.00;0.00;0.62;;;;;22.30;1.00;;;;;;2272567;61;987;-84
2022/08/09 02:29:55;92225.00;0.31;160.15;25793.00;0.09;45.30;;;;;22.40;1.00;;;;;;2272448;61;1015;-83
2022/08/09 02:32:25;0.00;0.00;0.62;0.00;0.00;0.62;;;;;22.70;1.00;;;;;;2272504;61;1985;-84
2022/08/09 02:34:58;0.00;0.00;0.62;0.00;0.00;0.62;;;;;22.60;1.00;;;;;;2272482;61;1270;-83
2022/08/09 02:37:29;75669.00;0.25;131.56;0.00;0.00;0.62;;;;;22.70;1.00;;;;;;2272503;61;1079;-83
2022/08/09 02:40:01;0.00;0.00;0.62;0.00;0.00;0.62;;;;;22.80;1.00;;;;;;2272478;61;1128;-84
2022/08/09 02:42:33;0.00;0.00;0.62;0.00;0.00;0.62;;;;;22.70;1.00;;;;;;2272518;61;1053;-83
2022/08/09 02:45:04;18402.00;0.06;32.50;0.00;0.00;0.62;;;;;22.70;1.00;;;;;;2272446;61;1400;-83
2022/08/09 02:47:33;0.00;0.00;0.62;0.00;0.00;0.62;;;;;22.80;1.00;;;;;;2272397;61;1036;-83
2022/08/09 02:50:04;0.00;0.00;0.62;0.00;0.00;0.62;;;;;22.60;1.00;;;;;;2272437;61;1178;-83
2022/08/09 02:52:41;99394.00;0.33;172.53;626.00;0.00;1.71;;;;;22.60;1.00;;;;;;2272377;61;2018;-84
2022/08/09 02:55:10;0.00;0.00;0.62;0.00;0.00;0.62;;;;;22.20;1.00;;;;;;2272446;61;1462;-83
2022/08/09 02:57:41;0.00;0.00;0.62;0.00;0.00;0.62;;;;;22.30;1.00;;;;;;2272348;61;1068;-83
2022/08/09 03:00:10;0.00;0.00;0.62;0.00;0.00;0.62;;;;;22.30;1.00;;;;;;2272379;61;1064;-83
2022/08/09 03:02:39;0.00;0.00;0.62;0.00;0.00;0.62;;;;;22.30;1.00;;;;;;2272408;61;2155;-84
2022/08/09 03:05:11;0.00;0.00;0.62;0.00;0.00;0.62;;;;;22.10;1.00;;;;;;2272419;61;1292;-83
2022/08/09 03:07:39;24768.00;0.08;43.53;0.00;0.00;0.62;;;;;22.20;1.00;;;;;;2272436;61;1209;-83
2022/08/09 03:10:08;0.00;0.00;0.62;0.00;0.00;0.62;;;;;22.20;1.00;;;;;;2272204;61;1135;-83
2022/08/09 03:12:37;96294.00;0.32;167.17;0.00;0.00;0.62;;;;;22.20;1.00;;;;;;2272366;61;1986;-84
2022/08/09 03:15:09;40348.00;0.13;70.49;0.00;0.00;0.62;;;;;21.80;1.00;;;;;;2272382;61;1387;-82
2022/08/09 03:17:37;0.00;0.00;0.62;0.00;0.00;0.62;;;;;21.90;1.00;;;;;;2272351;61;1122;-84
2022/08/09 03:20:07;22183.00;0.07;39.05;0.00;0.00;0.62;;;;;21.80;1.00;;;;;;2272355;61;1122;-84
2022/08/09 03:22:39;49584.00;0.17;86.47;0.00;0.00;0.62;;;;;21.70;1.00;;;;;;2272370;61;2180;-84
2022/08/09 03:25:08;0.00;0.00;0.62;0.00;0.00;0.62;;;;;21.40;1.00;;;;;;2272373;61;1303;-84
2022/08/09 03:27:37;2956.00;0.01;5.74;0.00;0.00;0.62;;;;;21.10;1.00;;;;;;2272365;61;772;-83
2022/08/09 03:30:07;52247.00;0.17;91.07;0.00;0.00;0.62;;;;;20.80;1.00;;;;;;2272374;61;1044;-83
2022/08/09 03:32:36;29755.00;0.10;52.16;0.00;0.00;0.62;;;;;20.70;1.00;;;;;;2272332;61;1921;-83
2022/08/09 03:35:04;74288.00;0.25;129.17;0.00;0.00;0.62;;;;;20.50;1.00;;;;;;2272326;61;1374;-83
2022/08/09 03:37:31;0.00;0.00;0.62;0.00;0.00;0.62;;;;;20.80;1.00;;;;;;2272381;61;1118;-82
2022/08/09 03:39:58;242498.00;0.81;419.05;19801.00;0.07;34.93;;;;;20.80;1.00;;;;;;2272244;61;1250;-83
2022/08/09 03:42:25;0.00;0.00;0.62;0.00;0.00;0.62;;;;;20.50;1.00;;;;;;2272315;61;1111;-83
2022/08/09 03:44:52;19202.00;0.06;33.89;0.00;0.00;0.62;;;;;20.90;1.00;;;;;;2272275;61;1281;-83
2022/08/09 03:47:20;0.00;0.00;0.62;0.00;0.00;0.62;;;;;21.00;1.00;;;;;;2272317;61;1138;-83
2022/08/09 03:49:49;0.00;0.00;0.62;0.00;0.00;0.62;;;;;21.10;1.00;;;;;;2272296;61;1070;-84
2022/08/09 03:52:17;0.00;0.00;0.62;0.00;0.00;0.62;;;;;21.10;1.00;;;;;;2272271;61;1911;-84
2022/08/09 03:54:46;3104.00;0.01;6.00;0.00;0.00;0.62;;;;;21.60;1.00;;;;;;2272253;61;1356;-85
2022/08/09 03:57:15;0.00;0.00;0.62;0.00;0.00;0.62;;;;;21.50;1.00;;;;;;2272190;61;1637;-84
2022/08/09 03:59:43;265813.00;0.89;459.14;0.00;0.00;0.62;;;;;21.50;1.00;;;;;;2272279;61;1122;-84
2022/08/09 04:02:10;0.00;0.00;0.62;0.00;0.00;0.62;;;;;21.70;1.00;;;;;;2272261;61;1133;-85
2022/08/09 04:04:39;0.00;0.00;0.62;0.00;0.00;0.62;;;;;21.70;1.00;;;;;;2272247;61;1447;-84
2022/08/09 04:07:06;74.00;0.00;0.75;0.00;0.00;0.62;;;;;21.50;1.00;;;;;;2272271;61;1130;-83
2022/08/09 04:09:33;0.00;0.00;0.62;0.00;0.00;0.62;;;;;21.50;1.00;;;;;;2272049;61;984;-83
2022/08/09 04:12:26;2594.00;0.01;5.12;0.00;0.00;0.62;;;;;21.60;1.00;;;;;;2272205;61;1997;-84
2022/08/09 04:14:53;17778.00;0.06;31.42;0.00;0.00;0.62;;;;;21.40;1.00;;;;;;2272214;61;1427;-84
2022/08/09 04:17:20;0.00;0.00;0.62;0.00;0.00;0.62;;;;;21.30;1.00;;;;;;2272241;61;998;-82
2022/08/09 04:19:48;432440.00;1.44;745.58;223247.00;0.74;385.93;;;;;21.10;1.00;;;;;;2272214;61;1103;-83
2022/08/09 04:22:15;46639.00;0.16;81.37;0.00;0.00;0.62;;;;;21.00;1.00;;;;;;2272187;61;993;-83
2022/08/09 04:24:41;39070.00;0.13;68.28;0.00;0.00;0.62;;;;;21.00;1.00;;;;;;2272211;61;1394;-84
2022/08/09 04:27:08;54006.00;0.18;94.11;0.00;0.00;0.62;;;;;20.50;1.00;;;;;;2272201;61;979;-83
2022/08/09 04:29:35;0.00;0.00;0.62;0.00;0.00;0.62;;;;;20.40;1.00;;;;;;2272143;61;1113;-84
2022/08/09 04:32:02;130019.00;0.43;225.36;0.00;0.00;0.62;;;;;20.90;1.00;;;;;;2271997;61;2010;-84
2022/08/09 04:34:32;195328.00;0.65;337.88;50566.00;0.17;88.17;;;;;20.90;1.00;;;;;;2272073;61;1277;-82
2022/08/09 04:37:01;36911.00;0.12;64.54;0.00;0.00;0.62;;;;;21.10;1.00;;;;;;2272110;61;1139;-84
2022/08/09 04:39:28;0.00;0.00;0.62;0.00;0.00;0.62;;;;;21.30;1.00;;;;;;2272023;61;1009;-84
2022/08/09 04:41:55;0.00;0.00;0.62;0.00;0.00;0.62;;;;;21.30;1.00;;;;;;2272128;61;2373;-84
2022/08/09 04:44:21;0.00;0.00;0.62;0.00;0.00;0.62;;;;;21.30;1.00;;;;;;2272025;61;1282;-84
2022/08/09 04:46:48;0.00;0.00;0.62;0.00;0.00;0.62;;;;;21.40;1.00;;;;;;2272216;61;906;-84
2022/08/09 04:49:15;0.00;0.00;0.62;0.00;0.00;0.62;;;;;21.50;1.00;;;;;;2272095;61;2213;-83
2022/08/09 04:51:42;0.00;0.00;0.62;0.00;0.00;0.62;;;;;21.60;1.00;;;;;;2272094;61;1076;-84
2022/08/09 04:54:10;0.00;0.00;0.62;0.00;0.00;0.62;;;;;21.60;1.00;;;;;;2272051;61;1936;-84
2022/08/09 04:56:37;8869.00;0.03;15.99;0.00;0.00;0.62;;;;;21.70;1.00;;;;;;2272144;61;1027;-85
2022/08/09 04:59:04;133925.00;0.45;232.10;0.00;0.00;0.62;;;;;21.30;1.00;;;;;;2272088;61;927;-84
2022/08/09 05:01:31;0.00;0.00;0.62;0.00;0.00;0.62;;;;;20.90;1.00;;;;;;2272041;61;1135;-84
2022/08/09 05:03:58;199730.00;0.67;345.46;61257.00;0.20;106.65;;;;;20.80;1.00;;;;;;2272042;61;1281;-83
2022/08/09 05:06:24;71668.00;0.24;124.64;0.00;0.00;0.62;;;;;20.70;1.00;;;;;;2272080;61;1052;-82
2022/08/09 05:08:51;0.00;0.00;0.62;0.00;0.00;0.62;;;;;20.70;1.00;;;;;;2271991;61;1087;-83
2022/08/09 05:11:19;0.00;0.00;0.62;0.00;0.00;0.62;;;;;21.20;1.00;;;;;;2272007;61;1063;-83
2022/08/09 05:13:46;38257.00;0.13;66.87;0.00;0.00;0.62;;;;;21.40;1.00;;;;;;2272025;61;2000;-83
2022/08/09 05:16:13;91369.00;0.30;158.67;24771.00;0.08;43.53;;;;;21.50;1.00;;;;;;2272012;61;1435;-84
2022/08/09 05:18:40;31590.00;0.11;55.34;0.00;0.00;0.62;;;;;21.60;1.00;;;;;;2271931;61;1012;-84
2022/08/09 05:21:07;0.00;0.00;0.62;0.00;0.00;0.62;;;;;22.10;1.00;;;;;;2272681;61;1169;-84
2022/08/09 05:23:34;0.00;0.00;0.62;0.00;0.00;0.62;;;;;22.30;1.00;;;;;;2272671;61;1134;-84
2022/08/09 05:26:01;110954.00;0.37;192.48;0.00;0.00;0.62;;;;;22.50;1.00;;;;;;2272664;61;1301;-84
2022/08/09 05:28:29;0.00;0.00;0.62;0.00;0.00;0.62;;;;;22.40;1.00;;;;;;2272726;61;1083;-84
2022/08/09 05:30:56;71173.00;0.24;123.79;0.00;0.00;0.62;;;;;22.20;1.00;;;;;;2272710;61;1109;-84
2022/08/09 05:33:24;364684.00;1.22;629.10;108161.00;0.36;187.66;;;;;22.40;1.00;;;;;;2272653;61;1993;-83
2022/08/09 05:35:51;0.00;0.00;0.62;0.00;0.00;0.62;;;;;22.10;1.00;;;;;;2272647;61;1296;-84
2022/08/09 05:38:18;16555.00;0.06;29.30;0.00;0.00;0.62;;;;;22.30;1.00;;;;;;2272726;61;1651;-84
2022/08/09 05:40:45;0.00;0.00;0.62;0.00;0.00;0.62;;;;;22.70;1.00;;;;;;2272633;61;1076;-83
2022/08/09 05:43:12;0.00;0.00;0.62;0.00;0.00;0.62;;;;;24.10;1.00;;;;;;2272684;61;1121;-84
2022/08/09 05:45:40;24394.00;0.08;42.88;0.00;0.00;0.62;;;;;25.60;1.00;;;;;;2272581;61;1401;-83
2022/08/09 05:48:07;0.00;0.00;0.62;0.00;0.00;0.62;;;;;26.80;1.00;;;;;;2272698;61;1154;-83
2022/08/09 05:50:34;0.00;0.00;0.62;0.00;0.00;0.62;;;;;27.60;1.00;;;;;;2272659;61;1731;-83
2022/08/09 05:53:00;0.00;0.00;0.62;0.00;0.00;0.62;;;;;28.40;1.00;;;;;;2272597;61;2180;-84
2022/08/09 05:55:27;0.00;0.00;0.62;0.00;0.00;0.62;;;;;29.00;1.00;;;;;;2272646;61;1371;-85
2022/08/09 05:57:54;0.00;0.00;0.62;0.00;0.00;0.62;;;;;29.60;1.00;;;;;;2272707;61;1071;-85
2022/08/09 06:00:21;18073.00;0.06;31.93;0.00;0.00;0.62;;;;;30.30;1.00;;;;;;2272634;61;1095;-84
2022/08/09 06:02:49;240162.00;0.80;415.03;60094.00;0.20;104.64;;;;;30.90;1.00;;;;;;2272637;61;1084;-83
2022/08/09 06:05:16;0.00;0.00;0.62;0.00;0.00;0.62;;;;;32.00;1.00;;;;;;2272611;61;1381;-84
2022/08/09 06:07:43;0.00;0.00;0.62;0.00;0.00;0.62;;;;;32.50;1.00;;;;;;2272615;61;1132;-84
2022/08/09 06:10:14;119009.00;0.40;206.37;43933.00;0.15;76.69;;;;;33.00;1.00;;;;;;2272663;61;1014;-83
2022/08/09 06:12:41;0.00;0.00;0.62;0.00;0.00;0.62;;;;;32.30;1.00;;;;;;2272551;61;1982;-84
2022/08/09 06:15:08;0.00;0.00;0.62;0.00;0.00;0.62;;;;;32.40;1.00;;;;;;2272494;61;1398;-83
2022/08/09 06:17:35;0.00;0.00;0.62;0.00;0.00;0.62;;;;;33.20;1.00;;;;;;2272519;61;1024;-84
2022/08/09 06:20:04;0.00;0.00;0.62;0.00;0.00;0.62;;;;;33.50;1.00;;;;;;2272560;61;1027;-84
2022/08/09 06:22:31;0.00;0.00;0.62;0.00;0.00;0.62;;;;;33.50;1.00;;;;;;2272590;61;947;-83
2022/08/09 06:24:58;0.00;0.00;0.62;0.00;0.00;0.62;;;;;33.60;1.00;;;;;;2272482;61;2149;-84
2022/08/09 06:27:25;22624.00;0.08;39.81;0.00;0.00;0.62;;;;;34.30;1.00;;;;;;2272557;61;1044;-83
2022/08/09 06:29:52;105064.00;0.35;182.31;0.00;0.00;0.62;;;;;34.30;1.00;;;;;;2272511;61;1130;-84
2022/08/09 06:32:19;0.00;0.00;0.62;0.00;0.00;0.62;;;;;34.70;1.00;;;;;;2272265;61;1916;-83
2022/08/09 06:34:45;137026.00;0.46;237.44;0.00;0.00;0.62;;;;;34.70;1.00;;;;;;2272512;61;1391;-84
2022/08/09 06:37:14;0.00;0.00;0.62;0.00;0.00;0.62;;;;;35.00;1.00;;;;;;2272546;61;1047;-83
2022/08/09 06:39:40;0.00;0.00;0.62;0.00;0.00;0.62;;;;;34.70;1.00;;;;;;2272392;61;1127;-84
2022/08/09 06:42:07;51534.00;0.17;89.84;0.00;0.00;0.62;;;;;35.70;1.00;;;;;;2272532;61;1010;-84
2022/08/09 06:44:34;31987.00;0.11;56.02;0.00;0.00;0.62;;;;;35.20;1.00;;;;;;2272461;61;1276;-83
2022/08/09 06:47:01;0.00;0.00;0.62;0.00;0.00;0.62;;;;;35.50;1.00;;;;;;2272477;61;1048;-85
2022/08/09 06:49:29;26910.00;0.09;47.23;0.00;0.00;0.62;;;;;35.90;1.00;;;;;;2272482;61;1003;-86
2022/08/09 06:51:56;165005.00;0.55;285.66;46952.00;0.16;81.91;;;;;35.30;1.00;;;;;;2272393;61;993;-84
2022/08/09 06:54:24;0.00;0.00;0.62;0.00;0.00;0.62;;;;;36.00;1.00;;;;;;2272420;61;2002;-83
2022/08/09 06:56:51;0.00;0.00;0.62;0.00;0.00;0.62;;;;;35.90;1.00;;;;;;2272351;61;1014;-82
2022/08/09 06:59:18;0.00;0.00;0.62;0.00;0.00;0.62;;;;;37.00;1.00;;;;;;2272308;61;1016;-83
2022/08/09 07:01:45;168571.00;0.56;291.81;0.00;0.00;0.62;;;;;37.50;1.00;;;;;;2272335;61;1109;-82
2022/08/09 07:04:11;0.00;0.00;0.62;0.00;0.00;0.62;;;;;37.10;1.00;;;;;;2272327;61;1343;-83
2022/08/09 07:06:38;0.00;0.00;0.62;0.00;0.00;0.62;;;;;36.70;1.00;;;;;;2272219;61;984;-83
2022/08/09 07:09:05;0.00;0.00;0.62;0.00;0.00;0.62;;;;;36.10;1.00;;;;;;2272383;61;1099;-83
2022/08/09 07:11:33;76987.00;0.26;133.83;0.00;0.00;0.62;;;;;36.20;1.00;;;;;;2272298;61;976;-83
2022/08/09 07:14:00;0.00;0.00;0.62;0.00;0.00;0.62;;;;;36.30;1.00;;;;;;2272274;61;1997;-83
2022/08/09 07:16:27;74062.00;0.25;128.78;0.00;0.00;0.62;;;;;37.10;1.00;;;;;;2272312;61;1695;-83
2022/08/09 07:18:54;0.00;0.00;0.62;0.00;0.00;0.62;;;;;36.90;1.00;;;;;;2272380;61;960;-82
2022/08/09 07:21:21;37131.00;0.12;64.92;0.00;0.00;0.62;;;;;36.50;1.00;;;;;;2272406;61;1072;-83
2022/08/09 07:23:48;250653.00;0.84;433.07;77801.00;0.26;135.24;;;;;37.20;1.00;;;;;;2272365;61;1102;-84
2022/08/09 07:26:14;0.00;0.00;0.62;0.00;0.00;0.62;;;;;37.40;1.00;;;;;;2272332;61;1286;-84
2022/08/09 07:28:43;52022.00;0.17;90.68;0.00;0.00;0.62;;;;;37.80;1.00;;;;;;2272374;61;1053;-84
2022/08/09 07:31:10;30068.00;0.10;52.70;0.00;0.00;0.62;;;;;37.80;1.00;;;;;;2272301;61;2214;-83
2022/08/09 07:33:37;0.00;0.00;0.62;0.00;0.00;0.62;;;;;37.50;1.00;;;;;;2272332;61;1994;-83
2022/08/09 07:36:05;37022.00;0.12;64.74;0.00;0.00;0.62;;;;;37.10;1.00;;;;;;2272299;61;1400;-83
2022/08/09 07:38:31;0.00;0.00;0.62;0.00;0.00;0.62;;;;;37.80;1.00;;;;;;2272352;61;1109;-82
2022/08/09 07:40:58;10150.00;0.03;18.21;0.00;0.00;0.62;;;;;37.50;1.00;;;;;;2272332;61;1078;-83
2022/08/09 07:43:25;116707.00;0.39;202.40;40447.00;0.13;70.66;;;;;37.10;1.00;;;;;;2272268;61;1099;-83
2022/08/09 07:45:53;245989.00;0.82;425.05;69281.00;0.23;120.52;;;;;35.80;1.00;;;;;;2272299;61;1382;-83
2022/08/09 07:48:20;107521.00;0.36;186.55;0.00;0.00;0.62;;;;;35.00;1.00;;;;;;2272324;61;1107;-83
2022/08/09 07:50:47;0.00;0.00;0.62;0.00;0.00;0.62;;;;;33.90;1.00;;;;;;2272295;61;1079;-84
2022/08/09 07:53:14;0.00;0.00;0.62;0.00;0.00;0.62;;;;;33.40;1.00;;;;;;2272307;61;1911;-83
2022/08/09 07:55:41;0.00;0.00;0.62;0.00;0.00;0.62;;;;;32.90;1.00;;;;;;2272180;61;1678;-84
2022/08/09 07:58:07;0.00;0.00;0.62;0.00;0.00;0.62;;;;;32.80;1.00;;;;;;2272277;61;1123;-85
2022/08/09 08:00:34;96184.00;0.32;166.98;0.00;0.00;0.62;;;;;33.10;1.00;;;;;;2272284;61;1146;-83
2022/08/09 08:03:03;0.00;0.00;0.62;0.00;0.00;0.62;;;;;33.20;1.00;;;;;;2272235;61;1119;-83
2022/08/09 08:05:30;199291.00;0.66;344.70;42307.00;0.14;73.88;;;;;34.30;1.00;;;;;;2272240;61;1281;-84
2022/08/09 08:07:57;54935.00;0.18;95.72;0.00;0.00;0.62;;;;;35.00;1.00;;;;;;2272174;61;1156;-83
2022/08/09 08:10:24;218956.00;0.73;378.55;52242.00;0.17;91.06;;;;;34.70;1.00;;;;;;2272248;61;1128;-83
2022/08/09 08:12:51;207376.00;0.69;358.62;71444.00;0.24;124.26;;;;;35.00;1.00;;;;;;2272215;61;1984;-83
2022/08/09 08:15:20;214997.00;0.72;371.73;72323.00;0.24;125.77;;;;;34.70;1.00;;;;;;2272214;61;1370;-84
2022/08/09 08:17:50;0.00;0.00;0.62;0.00;0.00;0.62;;;;;34.40;1.00;;;;;;2272199;61;1022;-83
2022/08/09 08:20:19;0.00;0.00;0.62;0.00;0.00;0.62;;;;;34.40;1.00;;;;;;2272172;61;1021;-83
2022/08/09 08:22:46;103268.00;0.34;179.21;23433.00;0.08;41.21;;;;;34.70;1.00;;;;;;2272223;61;1122;-83
2022/08/09 08:25:13;125193.00;0.42;217.04;0.00;0.00;0.62;;;;;34.00;1.00;;;;;;2272233;61;1308;-83
2022/08/09 08:27:40;0.00;0.00;0.62;0.00;0.00;0.62;;;;;33.10;1.00;;;;;;2272245;61;1109;-82
2022/08/09 08:30:09;0.00;0.00;0.62;0.00;0.00;0.62;;;;;32.80;1.00;;;;;;2272208;61;1139;-83
2022/08/09 08:32:36;117293.00;0.39;203.41;45702.00;0.15;79.75;;;;;33.30;1.00;;;;;;2272219;61;1182;-83
2022/08/09 08:35:03;0.00;0.00;0.62;0.00;0.00;0.62;;;;;34.00;1.00;;;;;;2272132;61;2005;-83
2022/08/09 08:37:31;0.00;0.00;0.62;0.00;0.00;0.62;;;;;34.00;1.00;;;;;;2272200;61;998;-84
2022/08/09 08:39:58;0.00;0.00;0.62;0.00;0.00;0.62;;;;;34.10;1.00;;;;;;2272129;61;1089;-83
2022/08/09 08:42:26;120503.00;0.40;208.95;0.00;0.00;0.62;;;;;34.10;1.00;;;;;;2272147;61;1131;-84
2022/08/09 08:44:58;31282.00;0.10;54.80;0.00;0.00;0.62;;;;;34.00;1.00;;;;;;2272143;61;1265;-83
2022/08/09 08:47:25;0.00;0.00;0.62;0.00;0.00;0.62;;;;;34.40;1.00;;;;;;2272180;61;1161;-84
2022/08/09 08:49:53;123507.00;0.41;214.13;57702.00;0.19;100.50;;;;;34.20;1.00;;;;;;2272149;61;1160;-83
2022/08/09 08:52:24;0.00;0.00;0.62;0.00;0.00;0.62;;;;;33.50;1.00;;;;;;2272172;61;1153;-83
2022/08/09 08:54:53;0.00;0.00;0.62;0.00;0.00;0.62;;;;;33.50;1.00;;;;;;2272341;61;1980;-84
2022/08/09 08:57:21;46153.00;0.15;80.53;0.00;0.00;0.62;;;;;33.70;1.00;;;;;;2272816;61;1128;-84
2022/08/09 08:59:48;0.00;0.00;0.62;0.00;0.00;0.62;;;;;33.30;1.00;;;;;;2272854;61;977;-84
2022/08/09 09:02:22;0.00;0.00;0.62;0.00;0.00;0.62;;;;;32.80;1.00;;;;;;2272894;61;1055;-83
2022/08/09 09:04:52;77079.00;0.26;133.99;0.00;0.00;0.62;;;;;32.40;1.00;;;;;;2272767;61;1412;-84
2022/08/09 09:07:19;5395.00;0.02;9.97;0.00;0.00;0.62;;;;;32.20;1.00;;;;;;2272786;61;1162;-83
2022/08/09 09:09:48;116914.00;0.39;202.76;51893.00;0.17;90.46;;;;;32.20;1.00;;;;;;2272797;61;1069;-83
2022/08/09 09:12:19;4256.00;0.01;8.00;0.00;0.00;0.62;;;;;31.80;1.00;;;;;;2272744;61;961;-84
2022/08/09 09:14:48;0.00;0.00;0.62;0.00;0.00;0.62;;;;;31.80;1.00;;;;;;2272742;61;1992;-83
2022/08/09 09:17:16;0.00;0.00;0.62;0.00;0.00;0.62;;;;;32.20;1.00;;;;;;2272735;61;1103;-83
2022/08/09 09:19:43;21718.00;0.07;38.25;0.00;0.00;0.62;;;;;32.20;1.00;;;;;;2272709;61;1131;-83
2022/08/09 09:22:13;42559.00;0.14;74.32;0.00;0.00;0.62;;;;;31.40;1.00;;;;;;2272802;61;1111;-83
2022/08/09 09:24:42;0.00;0.00;0.62;0.00;0.00;0.62;;;;;30.80;1.00;;;;;;2272721;61;1390;-83
2022/08/09 09:27:11;90838.00;0.30;157.75;0.00;0.00;0.62;;;;;30.80;1.00;;;;;;2272698;61;1493;-83
2022/08/09 09:29:42;0.00;0.00;0.62;0.00;0.00;0.62;;;;;30.20;1.00;;;;;;2272759;61;1118;-84
2022/08/09 09:32:10;100275.00;0.33;174.05;30498.00;0.10;53.45;;;;;29.80;1.00;;;;;;2272736;61;1135;-84
2022/08/09 09:34:37;24785.00;0.08;43.56;0.00;0.00;0.62;;;;;29.70;1.00;;;;;;2272698;61;1912;-85
2022/08/09 09:37:06;0.00;0.00;0.62;0.00;0.00;0.62;;;;;30.00;1.00;;;;;;2272681;61;2230;-85
2022/08/09 09:39:33;26355.00;0.09;46.27;0.00;0.00;0.62;;;;;29.90;1.00;;;;;;2272603;61;990;-83
2022/08/09 09:42:04;0.00;0.00;0.62;0.00;0.00;0.62;;;;;29.50;1.00;;;;;;2272659;61;1673;-83
2022/08/09 09:44:32;0.00;0.00;0.62;0.00;0.00;0.62;;;;;29.50;1.00;;;;;;2272749;61;1471;-83
2022/08/09 09:47:07;0.00;0.00;0.62;0.00;0.00;0.62;;;;;29.40;1.00;;;;;;2272679;61;1117;-84
2022/08/09 09:49:34;0.00;0.00;0.62;0.00;0.00;0.62;;;;;29.50;1.00;;;;;;2272677;61;1048;-83
2022/08/09 09:52:03;0.00;0.00;0.62;0.00;0.00;0.62;;;;;29.60;1.00;;;;;;2272678;61;1091;-83
2022/08/09 09:54:39;35837.00;0.12;62.69;0.00;0.00;0.62;;;;;29.30;1.00;;;;;;2272640;61;1929;-83
2022/08/09 09:57:17;215661.00;0.72;372.88;62706.00;0.21;109.15;;;;;28.60;1.00;;;;;;2272398;61;1151;-83
2022/08/09 09:59:45;170026.00;0.57;294.31;0.00;0.00;0.62;;;;;28.40;1.00;;;;;;2272641;61;1234;-83
2022/08/09 10:02:14;26999.00;0.09;47.39;0.00;0.00;0.62;;;;;28.20;1.00;;;;;;2272536;61;1165;-84
2022/08/09 10:04:42;0.00;0.00;0.62;0.00;0.00;0.62;;;;;28.20;1.00;;;;;;2272503;61;1378;-84
2022/08/09 10:07:23;88882.00;0.30;154.38;0.00;0.00;0.62;;;;;28.30;1.00;;;;;;2272632;61;1458;-84
2022/08/09 10:09:54;15225.00;0.05;27.00;0.00;0.00;0.62;;;;;28.20;1.00;;;;;;2272622;61;1138;-83
2022/08/09 10:12:27;266112.00;0.89;459.66;134584.00;0.45;233.23;;;;;28.40;1.00;;;;;;2272611;61;1084;-83
2022/08/09 10:15:10;0.00;0.00;0.62;0.00;0.00;0.62;;;;;28.40;1.00;;;;;;2272516;61;1911;-83
2022/08/09 10:17:39;101019.00;0.34;175.33;28819.00;0.10;50.54;;;;;28.40;1.00;;;;;;2272613;61;1130;-83
2022/08/09 10:20:24;114716.00;0.38;198.97;0.00;0.00;0.62;;;;;28.40;1.00;;;;;;2272556;61;1049;-83
2022/08/09 10:22:59;32280.00;0.11;56.53;0.00;0.00;0.62;;;;;28.20;1.00;;;;;;2272583;61;1144;-83
2022/08/09 10:25:26;0.00;0.00;0.62;0.00;0.00;0.62;;;;;28.50;1.00;;;;;;2272498;61;1427;-83